Impacts TAF Board INFO
FOR SITUATIONAL AWARENESS. NOT TO BE USED FOR FLIGHT PLANNING PURPOSES.
IDs:

KMIA - Miami Intl, FL, US

Issued at 0859 UTC 19 Nov 2017
Updated at 1018 UTC 19 Nov 2017
Potential Impact None Slight Moderate High
Time0953Z 19/11Z 19/12Z 19/13Z 19/14Z 19/15Z 19/16Z 19/17Z 19/18Z 19/19Z 19/20Z 19/21Z 19/22Z 19/23Z>>
Type OBS PRVL PRVL PRVL PRVL PRVL PRVL PRVL PRVL PRVL PRVL PRVL PRVL PRVL
VIS 10 >6 >6 >6 >6 >6 >6 >6 >6 >6 >6 >6 >6 >6
CIG -- -- -- -- -- -- -- -- -- -- -- -- -- --
Cover CLR SKC SKC SKC SKC FEW FEW FEW FEW FEW FEW FEW FEW FEW
FltCat VFR VFR VFR VFR VFR VFR VFR VFR VFR VFR VFR VFR VFR VFR
WX -- -- -- -- -- -- -- -- -- -- -- -- -- --
WDir VRB 320 320 320 320 280 280 280 280 280 280 280 280 280
WSpd 0 3 3 3 3 8 8 8 8 8 8 8 8 8
WGst -- -- -- -- -- -- -- -- -- -- -- -- -- --

Raw TAF
KMIA 190859Z 1909/2012 32003KT P6SM SKC
  FM191500 28008KT P6SM FEW040
  FM200300 32005KT P6SM SCT020 SCT040
  FM200900 01010KT P6SM VCSH SCT020 BKN040


Raw METAR
KMIA 190953Z 00000KT 10SM CLR 21/17 A2994 RMK AO2 SLP139 T02110172
KMIA 190853Z 32003KT 10SM CLR 21/18 A2994 RMK AO2 SLP139 T02110178 55004
KMIA 190753Z 31003KT 10SM FEW040 22/19 A2994 RMK AO2 SLP139 T02170194

METAR Board
Radar Display
Forecast Discussion

FOR SITUATIONAL AWARENESS. NOT TO BE USED FOR FLIGHT PLANNING PURPOSES.